Terminal Aerodrome Forecast
Issued by NWS Jackson, KY

Home | Current Version | Previous Version | Text Only | Print | Product List | Glossary On
Versions: 1 2 3 4 5 6 7 8 9 10 11 12 13 14 15 16
000
FTUS43 KJKL 252338
TAFLOZ
TAF
KLOZ 252338Z 2600/2624 VRB06KT P6SM SCT040 BKN250
     FM260300 VRB06KT 6SM -SN BR SCT020 OVC035
     FM260500 VRB06KT 1SM -SN BR BKN008 OVC020
     FM261000 34007KT 6SM -SHSN BR SCT008 BKN015 OVC025=

USA.gov is the U.S. government's official web portal to all federal, state and local government web resources and services.